sensor_id;sensor_type;location;lat;lon;timestamp;temperature;humidity
15394;DHT22;7795;47.986;11.868;2023-07-24T00:01:53;21.50;59.70
15394;DHT22;7795;47.986;11.868;2023-07-24T00:04:19;21.50;59.80
15394;DHT22;7795;47.986;11.868;2023-07-24T00:06:46;21.40;59.80
15394;DHT22;7795;47.986;11.868;2023-07-24T00:09:11;21.40;60.00
15394;DHT22;7795;47.986;11.868;2023-07-24T00:11:37;21.30;60.10
15394;DHT22;7795;47.986;11.868;2023-07-24T00:14:03;21.30;60.30
15394;DHT22;7795;47.986;11.868;2023-07-24T00:16:29;21.30;60.50
15394;DHT22;7795;47.986;11.868;2023-07-24T00:18:55;21.20;60.40
15394;DHT22;7795;47.986;11.868;2023-07-24T00:21:20;21.20;60.70
15394;DHT22;7795;47.986;11.868;2023-07-24T00:23:47;21.10;60.80
15394;DHT22;7795;47.986;11.868;2023-07-24T00:26:13;21.10;61.00
15394;DHT22;7795;47.986;11.868;2023-07-24T00:28:40;21.10;60.90
15394;DHT22;7795;47.986;11.868;2023-07-24T00:31:06;21.10;61.80
15394;DHT22;7795;47.986;11.868;2023-07-24T00:33:31;21.10;61.90
15394;DHT22;7795;47.986;11.868;2023-07-24T00:35:57;21.10;61.30
15394;DHT22;7795;47.986;11.868;2023-07-24T00:38:23;21.00;61.50
15394;DHT22;7795;47.986;11.868;2023-07-24T00:40:50;20.90;61.60
15394;DHT22;7795;47.986;11.868;2023-07-24T00:43:16;20.90;61.90
15394;DHT22;7795;47.986;11.868;2023-07-24T00:45:42;20.90;61.90
15394;DHT22;7795;47.986;11.868;2023-07-24T00:48:09;20.90;62.00
15394;DHT22;7795;47.986;11.868;2023-07-24T00:50:36;20.90;62.10
15394;DHT22;7795;47.986;11.868;2023-07-24T00:53:03;20.80;62.40
15394;DHT22;7795;47.986;11.868;2023-07-24T00:55:29;20.80;62.40
15394;DHT22;7795;47.986;11.868;2023-07-24T00:57:58;20.70;62.30
15394;DHT22;7795;47.986;11.868;2023-07-24T01:00:23;20.70;62.70
15394;DHT22;7795;47.986;11.868;2023-07-24T01:02:49;20.70;62.40
15394;DHT22;7795;47.986;11.868;2023-07-24T01:05:16;20.60;62.60
15394;DHT22;7795;47.986;11.868;2023-07-24T01:07:43;20.60;62.80
15394;DHT22;7795;47.986;11.868;2023-07-24T01:10:09;20.60;62.80
15394;DHT22;7795;47.986;11.868;2023-07-24T01:12:39;20.60;63.00
15394;DHT22;7795;47.986;11.868;2023-07-24T01:15:11;20.60;63.40
15394;DHT22;7795;47.986;11.868;2023-07-24T01:17:44;20.60;64.50
15394;DHT22;7795;47.986;11.868;2023-07-24T01:20:12;20.50;63.70
15394;DHT22;7795;47.986;11.868;2023-07-24T01:22:46;20.50;63.50
15394;DHT22;7795;47.986;11.868;2023-07-24T01:25:27;20.50;63.90
15394;DHT22;7795;47.986;11.868;2023-07-24T01:27:58;20.50;64.30
15394;DHT22;7795;47.986;11.868;2023-07-24T01:30:24;20.50;63.70
15394;DHT22;7795;47.986;11.868;2023-07-24T01:32:49;20.40;63.70
15394;DHT22;7795;47.986;11.868;2023-07-24T01:35:15;20.40;63.80
15394;DHT22;7795;47.986;11.868;2023-07-24T01:37:42;20.40;64.00
15394;DHT22;7795;47.986;11.868;2023-07-24T01:40:10;20.40;64.90
15394;DHT22;7795;47.986;11.868;2023-07-24T01:42:36;20.30;64.00
15394;DHT22;7795;47.986;11.868;2023-07-24T01:45:05;20.30;64.00
15394;DHT22;7795;47.986;11.868;2023-07-24T01:47:32;20.30;64.30
15394;DHT22;7795;47.986;11.868;2023-07-24T01:49:58;20.20;64.10
15394;DHT22;7795;47.986;11.868;2023-07-24T01:52:24;20.20;64.40
15394;DHT22;7795;47.986;11.868;2023-07-24T01:54:49;20.10;64.60
15394;DHT22;7795;47.986;11.868;2023-07-24T01:57:15;20.10;64.70
15394;DHT22;7795;47.986;11.868;2023-07-24T01:59:41;20.10;64.70
15394;DHT22;7795;47.986;11.868;2023-07-24T02:02:08;20.10;64.80
15394;DHT22;7795;47.986;11.868;2023-07-24T02:04:34;20.00;65.00
15394;DHT22;7795;47.986;11.868;2023-07-24T02:06:59;20.00;65.80
15394;DHT22;7795;47.986;11.868;2023-07-24T02:09:25;20.00;65.10
15394;DHT22;7795;47.986;11.868;2023-07-24T02:11:51;20.00;65.20
15394;DHT22;7795;47.986;11.868;2023-07-24T02:14:18;19.90;65.30
15394;DHT22;7795;47.986;11.868;2023-07-24T02:16:44;19.90;65.60
15394;DHT22;7795;47.986;11.868;2023-07-24T02:19:11;19.90;65.60
15394;DHT22;7795;47.986;11.868;2023-07-24T02:21:37;19.80;65.70
15394;DHT22;7795;47.986;11.868;2023-07-24T02:24:03;19.80;65.60
15394;DHT22;7795;47.986;11.868;2023-07-24T02:26:29;19.80;65.60
15394;DHT22;7795;47.986;11.868;2023-07-24T02:28:54;19.80;65.60
15394;DHT22;7795;47.986;11.868;2023-07-24T02:31:20;19.70;65.70
15394;DHT22;7795;47.986;11.868;2023-07-24T02:33:46;19.70;65.80
15394;DHT22;7795;47.986;11.868;2023-07-24T02:36:13;19.70;65.90
15394;DHT22;7795;47.986;11.868;2023-07-24T02:38:38;19.70;66.10
15394;DHT22;7795;47.986;11.868;2023-07-24T02:41:04;19.60;66.10
15394;DHT22;7795;47.986;11.868;2023-07-24T02:43:30;19.60;66.20
15394;DHT22;7795;47.986;11.868;2023-07-24T02:46:00;19.60;66.40
15394;DHT22;7795;47.986;11.868;2023-07-24T02:48:26;19.60;66.90
15394;DHT22;7795;47.986;11.868;2023-07-24T02:50:52;19.60;66.70
15394;DHT22;7795;47.986;11.868;2023-07-24T02:53:20;19.50;66.80
15394;DHT22;7795;47.986;11.868;2023-07-24T02:55:45;19.50;67.10
15394;DHT22;7795;47.986;11.868;2023-07-24T02:58:12;19.50;67.10
15394;DHT22;7795;47.986;11.868;2023-07-24T03:00:38;19.40;67.10
15394;DHT22;7795;47.986;11.868;2023-07-24T03:03:03;19.40;67.10
15394;DHT22;7795;47.986;11.868;2023-07-24T03:05:30;19.40;67.30
15394;DHT22;7795;47.986;11.868;2023-07-24T03:07:55;19.40;67.40
15394;DHT22;7795;47.986;11.868;2023-07-24T03:10:23;19.40;67.40
15394;DHT22;7795;47.986;11.868;2023-07-24T03:12:48;19.40;67.70
15394;DHT22;7795;47.986;11.868;2023-07-24T03:15:14;19.30;67.70
15394;DHT22;7795;47.986;11.868;2023-07-24T03:17:40;19.30;67.90
15394;DHT22;7795;47.986;11.868;2023-07-24T03:20:09;19.30;68.30
15394;DHT22;7795;47.986;11.868;2023-07-24T03:22:36;19.30;69.20
15394;DHT22;7795;47.986;11.868;2023-07-24T03:25:02;19.30;69.50
15394;DHT22;7795;47.986;11.868;2023-07-24T03:27:30;19.30;70.00
15394;DHT22;7795;47.986;11.868;2023-07-24T03:29:55;19.40;70.90
15394;DHT22;7795;47.986;11.868;2023-07-24T03:32:21;19.40;70.10
15394;DHT22;7795;47.986;11.868;2023-07-24T03:34:47;19.60;70.90
15394;DHT22;7795;47.986;11.868;2023-07-24T03:37:12;19.70;70.20
15394;DHT22;7795;47.986;11.868;2023-07-24T03:39:38;19.70;70.20
15394;DHT22;7795;47.986;11.868;2023-07-24T03:42:04;19.90;70.20
15394;DHT22;7795;47.986;11.868;2023-07-24T03:44:31;20.00;70.20
15394;DHT22;7795;47.986;11.868;2023-07-24T03:46:57;20.10;70.10
15394;DHT22;7795;47.986;11.868;2023-07-24T03:49:23;20.20;69.90
15394;DHT22;7795;47.986;11.868;2023-07-24T03:51:48;20.30;69.80
15394;DHT22;7795;47.986;11.868;2023-07-24T03:54:14;20.40;69.70
15394;DHT22;7795;47.986;11.868;2023-07-24T03:56:40;20.50;69.60
15394;DHT22;7795;47.986;11.868;2023-07-24T03:59:06;20.60;69.60
15394;DHT22;7795;47.986;11.868;2023-07-24T04:01:33;20.70;69.50
15394;DHT22;7795;47.986;11.868;2023-07-24T04:03:59;20.80;69.40
15394;DHT22;7795;47.986;11.868;2023-07-24T04:06:25;20.80;69.20
15394;DHT22;7795;47.986;11.868;2023-07-24T04:08:50;20.90;70.00
15394;DHT22;7795;47.986;11.868;2023-07-24T04:11:16;21.00;69.30
15394;DHT22;7795;47.986;11.868;2023-07-24T04:13:42;21.00;69.30
15394;DHT22;7795;47.986;11.868;2023-07-24T04:16:07;21.10;69.20
15394;DHT22;7795;47.986;11.868;2023-07-24T04:18:34;21.20;69.30
15394;DHT22;7795;47.986;11.868;2023-07-24T04:21:00;21.20;69.30
15394;DHT22;7795;47.986;11.868;2023-07-24T04:23:26;21.30;69.20
15394;DHT22;7795;47.986;11.868;2023-07-24T04:25:52;21.30;69.10
15394;DHT22;7795;47.986;11.868;2023-07-24T04:28:17;21.40;69.00
15394;DHT22;7795;47.986;11.868;2023-07-24T04:30:43;21.40;69.10
15394;DHT22;7795;47.986;11.868;2023-07-24T04:33:09;21.40;69.10
15394;DHT22;7795;47.986;11.868;2023-07-24T04:35:36;21.50;69.10
15394;DHT22;7795;47.986;11.868;2023-07-24T04:38:01;21.50;69.20
15394;DHT22;7795;47.986;11.868;2023-07-24T04:40:27;21.50;69.10
15394;DHT22;7795;47.986;11.868;2023-07-24T04:42:53;21.60;69.40
15394;DHT22;7795;47.986;11.868;2023-07-24T04:45:19;21.60;69.10
15394;DHT22;7795;47.986;11.868;2023-07-24T04:47:44;21.60;68.90
15394;DHT22;7795;47.986;11.868;2023-07-24T04:50:10;21.60;68.90
15394;DHT22;7795;47.986;11.868;2023-07-24T04:52:37;21.60;68.80
15394;DHT22;7795;47.986;11.868;2023-07-24T04:55:04;21.60;68.80
15394;DHT22;7795;47.986;11.868;2023-07-24T04:57:29;21.70;68.80
15394;DHT22;7795;47.986;11.868;2023-07-24T04:59:55;21.70;68.80
15394;DHT22;7795;47.986;11.868;2023-07-24T05:02:21;21.70;69.50
15394;DHT22;7795;47.986;11.868;2023-07-24T05:04:47;21.70;68.80
15394;DHT22;7795;47.986;11.868;2023-07-24T05:07:12;21.70;68.80
15394;DHT22;7795;47.986;11.868;2023-07-24T05:09:39;21.80;68.90
15394;DHT22;7795;47.986;11.868;2023-07-24T05:12:06;21.80;69.10
15394;DHT22;7795;47.986;11.868;2023-07-24T05:14:32;21.80;69.10
15394;DHT22;7795;47.986;11.868;2023-07-24T05:16:57;21.90;69.00
15394;DHT22;7795;47.986;11.868;2023-07-24T05:19:23;22.00;69.10
15394;DHT22;7795;47.986;11.868;2023-07-24T05:21:49;22.00;69.20
15394;DHT22;7795;47.986;11.868;2023-07-24T05:24:15;22.20;69.20
15394;DHT22;7795;47.986;11.868;2023-07-24T05:26:42;22.30;69.10
15394;DHT22;7795;47.986;11.868;2023-07-24T05:29:08;22.40;69.10
15394;DHT22;7795;47.986;11.868;2023-07-24T05:31:34;22.60;68.90
15394;DHT22;7795;47.986;11.868;2023-07-24T05:34:01;22.70;68.70
15394;DHT22;7795;47.986;11.868;2023-07-24T05:36:29;22.90;68.40
15394;DHT22;7795;47.986;11.868;2023-07-24T05:38:54;23.10;68.20
15394;DHT22;7795;47.986;11.868;2023-07-24T05:41:20;23.30;68.00
15394;DHT22;7795;47.986;11.868;2023-07-24T05:43:47;23.50;67.90
15394;DHT22;7795;47.986;11.868;2023-07-24T05:46:13;23.70;67.40
15394;DHT22;7795;47.986;11.868;2023-07-24T05:48:39;23.80;66.90
15394;DHT22;7795;47.986;11.868;2023-07-24T05:51:04;24.00;66.50
15394;DHT22;7795;47.986;11.868;2023-07-24T05:53:30;24.20;66.40
15394;DHT22;7795;47.986;11.868;2023-07-24T05:55:57;24.40;66.10
15394;DHT22;7795;47.986;11.868;2023-07-24T05:58:23;24.60;65.80
15394;DHT22;7795;47.986;11.868;2023-07-24T06:00:50;24.70;65.30
15394;DHT22;7795;47.986;11.868;2023-07-24T06:03:16;24.90;64.80
15394;DHT22;7795;47.986;11.868;2023-07-24T06:05:42;25.10;64.50
15394;DHT22;7795;47.986;11.868;2023-07-24T06:08:07;25.30;64.10
15394;DHT22;7795;47.986;11.868;2023-07-24T06:10:36;25.40;63.50
15394;DHT22;7795;47.986;11.868;2023-07-24T06:13:02;25.60;63.20
15394;DHT22;7795;47.986;11.868;2023-07-24T06:15:28;25.80;63.10
15394;DHT22;7795;47.986;11.868;2023-07-24T06:17:55;25.90;62.70
15394;DHT22;7795;47.986;11.868;2023-07-24T06:20:20;26.10;62.50
15394;DHT22;7795;47.986;11.868;2023-07-24T06:22:46;26.20;62.10
15394;DHT22;7795;47.986;11.868;2023-07-24T06:25:12;26.30;61.80
15394;DHT22;7795;47.986;11.868;2023-07-24T06:27:38;26.40;61.70
15394;DHT22;7795;47.986;11.868;2023-07-24T06:30:04;26.50;61.50
15394;DHT22;7795;47.986;11.868;2023-07-24T06:32:30;26.60;61.10
15394;DHT22;7795;47.986;11.868;2023-07-24T06:34:57;26.70;60.90
15394;DHT22;7795;47.986;11.868;2023-07-24T06:37:23;26.80;60.80
15394;DHT22;7795;47.986;11.868;2023-07-24T06:39:49;26.80;60.60
15394;DHT22;7795;47.986;11.868;2023-07-24T06:42:14;26.80;60.60
15394;DHT22;7795;47.986;11.868;2023-07-24T06:44:40;26.90;60.50
15394;DHT22;7795;47.986;11.868;2023-07-24T06:47:06;26.90;60.40
15394;DHT22;7795;47.986;11.868;2023-07-24T06:49:31;26.90;60.20
15394;DHT22;7795;47.986;11.868;2023-07-24T06:51:59;26.90;60.10
15394;DHT22;7795;47.986;11.868;2023-07-24T06:54:24;27.00;60.00
15394;DHT22;7795;47.986;11.868;2023-07-24T06:56:50;26.90;60.00
15394;DHT22;7795;47.986;11.868;2023-07-24T06:59:16;27.00;60.00
15394;DHT22;7795;47.986;11.868;2023-07-24T07:01:41;27.00;60.00
15394;DHT22;7795;47.986;11.868;2023-07-24T07:04:07;27.00;60.00
15394;DHT22;7795;47.986;11.868;2023-07-24T07:06:33;27.00;60.00
15394;DHT22;7795;47.986;11.868;2023-07-24T07:09:00;27.00;59.90
15394;DHT22;7795;47.986;11.868;2023-07-24T07:11:25;27.00;59.80
15394;DHT22;7795;47.986;11.868;2023-07-24T07:13:51;27.00;59.70
15394;DHT22;7795;47.986;11.868;2023-07-24T07:16:17;26.90;59.60
15394;DHT22;7795;47.986;11.868;2023-07-24T07:18:44;27.00;59.60
15394;DHT22;7795;47.986;11.868;2023-07-24T07:21:10;26.90;59.40
15394;DHT22;7795;47.986;11.868;2023-07-24T07:23:36;26.90;59.30
15394;DHT22;7795;47.986;11.868;2023-07-24T07:26:03;26.90;59.30
15394;DHT22;7795;47.986;11.868;2023-07-24T07:28:28;27.00;59.80
15394;DHT22;7795;47.986;11.868;2023-07-24T07:30:54;27.00;59.20
15394;DHT22;7795;47.986;11.868;2023-07-24T07:33:20;27.00;59.30
15394;DHT22;7795;47.986;11.868;2023-07-24T07:35:50;27.00;59.00
15394;DHT22;7795;47.986;11.868;2023-07-24T07:38:16;27.10;58.90
15394;DHT22;7795;47.986;11.868;2023-07-24T07:40:41;27.10;58.70
15394;DHT22;7795;47.986;11.868;2023-07-24T07:43:08;27.20;58.60
15394;DHT22;7795;47.986;11.868;2023-07-24T07:45:34;27.30;58.50
15394;DHT22;7795;47.986;11.868;2023-07-24T07:48:00;27.30;58.50
15394;DHT22;7795;47.986;11.868;2023-07-24T07:50:26;27.30;58.50
15394;DHT22;7795;47.986;11.868;2023-07-24T07:52:52;27.30;58.40
15394;DHT22;7795;47.986;11.868;2023-07-24T07:55:18;27.40;58.30
15394;DHT22;7795;47.986;11.868;2023-07-24T07:57:44;27.40;58.20
15394;DHT22;7795;47.986;11.868;2023-07-24T08:00:12;27.40;58.70
15394;DHT22;7795;47.986;11.868;2023-07-24T08:02:38;27.40;57.90
15394;DHT22;7795;47.986;11.868;2023-07-24T08:05:08;27.40;57.80
15394;DHT22;7795;47.986;11.868;2023-07-24T08:07:34;27.40;57.30
15394;DHT22;7795;47.986;11.868;2023-07-24T08:09:59;27.30;57.00
15394;DHT22;7795;47.986;11.868;2023-07-24T08:12:25;27.30;57.00
15394;DHT22;7795;47.986;11.868;2023-07-24T08:14:51;27.20;56.90
15394;DHT22;7795;47.986;11.868;2023-07-24T08:17:18;27.20;57.20
15394;DHT22;7795;47.986;11.868;2023-07-24T08:19:44;27.20;57.10
15394;DHT22;7795;47.986;11.868;2023-07-24T08:22:09;27.20;56.90
15394;DHT22;7795;47.986;11.868;2023-07-24T08:24:36;27.20;56.90
15394;DHT22;7795;47.986;11.868;2023-07-24T08:27:01;27.20;57.30
15394;DHT22;7795;47.986;11.868;2023-07-24T08:29:27;27.30;56.50
15394;DHT22;7795;47.986;11.868;2023-07-24T08:31:53;27.30;56.50
15394;DHT22;7795;47.986;11.868;2023-07-24T08:34:20;27.30;56.60
15394;DHT22;7795;47.986;11.868;2023-07-24T08:36:46;27.30;56.30
15394;DHT22;7795;47.986;11.868;2023-07-24T08:39:12;27.30;56.10
15394;DHT22;7795;47.986;11.868;2023-07-24T08:41:37;27.40;56.10
15394;DHT22;7795;47.986;11.868;2023-07-24T08:44:04;27.40;56.00
15394;DHT22;7795;47.986;11.868;2023-07-24T08:46:30;27.40;56.00
15394;DHT22;7795;47.986;11.868;2023-07-24T08:48:57;27.40;55.70
15394;DHT22;7795;47.986;11.868;2023-07-24T08:51:25;27.40;55.20
15394;DHT22;7795;47.986;11.868;2023-07-24T08:53:51;27.40;55.10
15394;DHT22;7795;47.986;11.868;2023-07-24T08:56:18;27.40;55.00
15394;DHT22;7795;47.986;11.868;2023-07-24T08:58:45;27.40;55.00
15394;DHT22;7795;47.986;11.868;2023-07-24T09:01:11;27.40;55.00
15394;DHT22;7795;47.986;11.868;2023-07-24T09:03:37;27.40;54.80
15394;DHT22;7795;47.986;11.868;2023-07-24T09:06:03;27.30;54.90
15394;DHT22;7795;47.986;11.868;2023-07-24T09:08:31;27.30;54.70
15394;DHT22;7795;47.986;11.868;2023-07-24T09:10:57;27.20;54.60
15394;DHT22;7795;47.986;11.868;2023-07-24T09:13:23;27.20;54.90
15394;DHT22;7795;47.986;11.868;2023-07-24T09:15:49;27.20;55.50
15394;DHT22;7795;47.986;11.868;2023-07-24T09:18:15;27.20;54.90
15394;DHT22;7795;47.986;11.868;2023-07-24T09:20:42;27.20;54.90
15394;DHT22;7795;47.986;11.868;2023-07-24T09:23:09;27.20;54.80
15394;DHT22;7795;47.986;11.868;2023-07-24T09:25:39;27.20;54.80
15394;DHT22;7795;47.986;11.868;2023-07-24T09:28:11;27.20;54.60
15394;DHT22;7795;47.986;11.868;2023-07-24T09:30:38;27.20;54.40
15394;DHT22;7795;47.986;11.868;2023-07-24T09:33:04;27.30;54.60
15394;DHT22;7795;47.986;11.868;2023-07-24T09:35:30;27.30;55.00
15394;DHT22;7795;47.986;11.868;2023-07-24T09:38:02;27.30;55.00
15394;DHT22;7795;47.986;11.868;2023-07-24T09:40:28;27.30;54.70
15394;DHT22;7795;47.986;11.868;2023-07-24T09:42:55;27.40;54.70
15394;DHT22;7795;47.986;11.868;2023-07-24T09:45:21;27.40;54.60
15394;DHT22;7795;47.986;11.868;2023-07-24T09:47:46;27.50;54.60
15394;DHT22;7795;47.986;11.868;2023-07-24T09:50:13;27.50;54.50
15394;DHT22;7795;47.986;11.868;2023-07-24T09:52:41;27.60;54.40
15394;DHT22;7795;47.986;11.868;2023-07-24T09:55:11;27.70;54.40
15394;DHT22;7795;47.986;11.868;2023-07-24T09:57:37;27.70;54.50
15394;DHT22;7795;47.986;11.868;2023-07-24T10:00:07;27.80;54.60
15394;DHT22;7795;47.986;11.868;2023-07-24T10:02:33;27.80;54.60
15394;DHT22;7795;47.986;11.868;2023-07-24T10:04:59;27.90;54.80
15394;DHT22;7795;47.986;11.868;2023-07-24T10:07:26;28.00;54.60
15394;DHT22;7795;47.986;11.868;2023-07-24T10:09:53;28.10;54.40
15394;DHT22;7795;47.986;11.868;2023-07-24T10:12:19;28.10;54.20
15394;DHT22;7795;47.986;11.868;2023-07-24T10:14:46;28.20;54.30
15394;DHT22;7795;47.986;11.868;2023-07-24T10:17:14;28.30;54.40
15394;DHT22;7795;47.986;11.868;2023-07-24T10:19:40;28.30;54.10
15394;DHT22;7795;47.986;11.868;2023-07-24T10:22:09;28.40;53.90
15394;DHT22;7795;47.986;11.868;2023-07-24T10:24:34;28.40;53.80
15394;DHT22;7795;47.986;11.868;2023-07-24T10:27:02;28.50;54.10
15394;DHT22;7795;47.986;11.868;2023-07-24T10:29:28;28.60;54.00
15394;DHT22;7795;47.986;11.868;2023-07-24T10:31:54;28.60;53.90
15394;DHT22;7795;47.986;11.868;2023-07-24T10:34:22;28.70;53.70
15394;DHT22;7795;47.986;11.868;2023-07-24T10:36:47;28.80;53.60
15394;DHT22;7795;47.986;11.868;2023-07-24T10:39:14;28.90;53.70
15394;DHT22;7795;47.986;11.868;2023-07-24T10:41:40;28.90;53.50
15394;DHT22;7795;47.986;11.868;2023-07-24T10:44:06;29.00;53.40
15394;DHT22;7795;47.986;11.868;2023-07-24T10:46:36;29.10;53.10
15394;DHT22;7795;47.986;11.868;2023-07-24T10:49:03;29.20;52.80
15394;DHT22;7795;47.986;11.868;2023-07-24T10:51:30;29.20;53.70
15394;DHT22;7795;47.986;11.868;2023-07-24T10:54:01;29.30;53.00
15394;DHT22;7795;47.986;11.868;2023-07-24T10:56:27;29.30;52.80
15394;DHT22;7795;47.986;11.868;2023-07-24T10:58:53;29.40;52.60
15394;DHT22;7795;47.986;11.868;2023-07-24T11:01:19;29.40;52.40
15394;DHT22;7795;47.986;11.868;2023-07-24T11:03:45;29.50;52.50
15394;DHT22;7795;47.986;11.868;2023-07-24T11:06:13;29.50;52.50
15394;DHT22;7795;47.986;11.868;2023-07-24T11:08:40;29.60;52.90
15394;DHT22;7795;47.986;11.868;2023-07-24T11:11:07;29.70;52.20
15394;DHT22;7795;47.986;11.868;2023-07-24T11:13:34;29.80;52.20
15394;DHT22;7795;47.986;11.868;2023-07-24T11:16:04;29.80;52.00
15394;DHT22;7795;47.986;11.868;2023-07-24T11:18:30;29.90;51.40
15394;DHT22;7795;47.986;11.868;2023-07-24T11:20:56;29.90;52.10
15394;DHT22;7795;47.986;11.868;2023-07-24T11:23:23;30.00;51.20
15394;DHT22;7795;47.986;11.868;2023-07-24T11:25:51;30.00;50.70
15394;DHT22;7795;47.986;11.868;2023-07-24T11:28:18;30.10;50.50
15394;DHT22;7795;47.986;11.868;2023-07-24T11:30:44;30.10;50.50
15394;DHT22;7795;47.986;11.868;2023-07-24T11:33:11;30.10;50.20
15394;DHT22;7795;47.986;11.868;2023-07-24T11:35:37;30.20;50.10
15394;DHT22;7795;47.986;11.868;2023-07-24T11:38:05;30.20;50.10
15394;DHT22;7795;47.986;11.868;2023-07-24T11:40:32;30.30;50.50
15394;DHT22;7795;47.986;11.868;2023-07-24T11:42:59;30.30;50.70
15394;DHT22;7795;47.986;11.868;2023-07-24T11:45:25;30.30;50.40
15394;DHT22;7795;47.986;11.868;2023-07-24T11:47:51;30.40;50.40
15394;DHT22;7795;47.986;11.868;2023-07-24T11:50:19;30.40;50.30
15394;DHT22;7795;47.986;11.868;2023-07-24T11:52:47;30.40;50.10
15394;DHT22;7795;47.986;11.868;2023-07-24T11:55:14;30.50;49.50
15394;DHT22;7795;47.986;11.868;2023-07-24T11:57:40;30.60;49.30
15394;DHT22;7795;47.986;11.868;2023-07-24T12:00:22;30.60;49.10
15394;DHT22;7795;47.986;11.868;2023-07-24T12:02:48;30.60;48.70
15394;DHT22;7795;47.986;11.868;2023-07-24T12:05:14;30.70;49.30
15394;DHT22;7795;47.986;11.868;2023-07-24T12:07:42;30.70;49.30
15394;DHT22;7795;47.986;11.868;2023-07-24T12:10:09;30.80;49.10
15394;DHT22;7795;47.986;11.868;2023-07-24T12:12:40;30.80;49.20
15394;DHT22;7795;47.986;11.868;2023-07-24T12:15:08;30.80;48.70
15394;DHT22;7795;47.986;11.868;2023-07-24T12:17:34;30.90;48.70
15394;DHT22;7795;47.986;11.868;2023-07-24T12:20:00;30.90;48.90
15394;DHT22;7795;47.986;11.868;2023-07-24T12:22:26;31.00;48.70
15394;DHT22;7795;47.986;11.868;2023-07-24T12:24:52;31.00;48.30
15394;DHT22;7795;47.986;11.868;2023-07-24T12:27:18;31.10;48.50
15394;DHT22;7795;47.986;11.868;2023-07-24T12:29:43;31.10;48.50
15394;DHT22;7795;47.986;11.868;2023-07-24T12:32:10;31.10;48.40
15394;DHT22;7795;47.986;11.868;2023-07-24T12:34:36;31.10;48.20
15394;DHT22;7795;47.986;11.868;2023-07-24T12:37:02;31.20;48.30
15394;DHT22;7795;47.986;11.868;2023-07-24T12:39:28;31.20;48.40
15394;DHT22;7795;47.986;11.868;2023-07-24T12:41:53;31.20;48.20
15394;DHT22;7795;47.986;11.868;2023-07-24T12:44:19;31.20;48.20
15394;DHT22;7795;47.986;11.868;2023-07-24T12:46:45;31.20;48.20
15394;DHT22;7795;47.986;11.868;2023-07-24T12:49:12;31.30;48.10
15394;DHT22;7795;47.986;11.868;2023-07-24T12:51:37;31.30;48.10
15394;DHT22;7795;47.986;11.868;2023-07-24T12:54:03;31.30;47.80
15394;DHT22;7795;47.986;11.868;2023-07-24T12:56:29;31.20;47.50
15394;DHT22;7795;47.986;11.868;2023-07-24T12:58:55;31.20;47.60
15394;DHT22;7795;47.986;11.868;2023-07-24T13:01:20;31.20;49.00
15394;DHT22;7795;47.986;11.868;2023-07-24T13:03:46;31.10;50.10
15394;DHT22;7795;47.986;11.868;2023-07-24T13:06:13;30.90;50.70
15394;DHT22;7795;47.986;11.868;2023-07-24T13:08:39;30.70;50.90
15394;DHT22;7795;47.986;11.868;2023-07-24T13:11:05;30.40;51.20
15394;DHT22;7795;47.986;11.868;2023-07-24T13:13:30;30.00;51.70
15394;DHT22;7795;47.986;11.868;2023-07-24T13:15:56;29.70;52.10
15394;DHT22;7795;47.986;11.868;2023-07-24T13:18:22;29.40;52.60
15394;DHT22;7795;47.986;11.868;2023-07-24T13:20:47;29.10;53.10
15394;DHT22;7795;47.986;11.868;2023-07-24T13:23:15;28.80;53.60
15394;DHT22;7795;47.986;11.868;2023-07-24T13:25:40;28.50;54.10
15394;DHT22;7795;47.986;11.868;2023-07-24T13:28:06;28.20;54.50
15394;DHT22;7795;47.986;11.868;2023-07-24T13:30:32;28.00;55.00
15394;DHT22;7795;47.986;11.868;2023-07-24T13:32:57;27.70;55.30
15394;DHT22;7795;47.986;11.868;2023-07-24T13:35:23;27.50;55.90
15394;DHT22;7795;47.986;11.868;2023-07-24T13:37:49;27.30;56.50
15394;DHT22;7795;47.986;11.868;2023-07-24T13:40:16;27.00;56.80
15394;DHT22;7795;47.986;11.868;2023-07-24T13:42:42;26.80;57.30
15394;DHT22;7795;47.986;11.868;2023-07-24T13:45:08;26.60;57.50
15394;DHT22;7795;47.986;11.868;2023-07-24T13:47:34;26.50;58.00
15394;DHT22;7795;47.986;11.868;2023-07-24T13:50:00;26.30;58.40
15394;DHT22;7795;47.986;11.868;2023-07-24T13:52:28;26.20;58.90
15394;DHT22;7795;47.986;11.868;2023-07-24T13:54:54;26.10;59.60
15394;DHT22;7795;47.986;11.868;2023-07-24T13:57:21;26.00;59.60
15394;DHT22;7795;47.986;11.868;2023-07-24T13:59:47;25.90;60.20
15394;DHT22;7795;47.986;11.868;2023-07-24T14:02:13;25.80;60.50
15394;DHT22;7795;47.986;11.868;2023-07-24T14:04:38;25.80;61.30
15394;DHT22;7795;47.986;11.868;2023-07-24T14:07:04;25.70;61.80
15394;DHT22;7795;47.986;11.868;2023-07-24T14:09:30;25.60;62.10
15394;DHT22;7795;47.986;11.868;2023-07-24T14:11:58;25.60;62.50
15394;DHT22;7795;47.986;11.868;2023-07-24T14:14:25;25.60;62.60
15394;DHT22;7795;47.986;11.868;2023-07-24T14:16:51;25.70;63.40
15394;DHT22;7795;47.986;11.868;2023-07-24T14:19:17;25.70;63.50
15394;DHT22;7795;47.986;11.868;2023-07-24T14:21:43;25.70;63.60
15394;DHT22;7795;47.986;11.868;2023-07-24T14:24:09;25.80;64.10
15394;DHT22;7795;47.986;11.868;2023-07-24T14:26:35;25.80;64.10
15394;DHT22;7795;47.986;11.868;2023-07-24T14:29:02;25.80;63.90
15394;DHT22;7795;47.986;11.868;2023-07-24T14:31:29;25.90;64.10
15394;DHT22;7795;47.986;11.868;2023-07-24T14:33:55;25.90;65.10
15394;DHT22;7795;47.986;11.868;2023-07-24T14:36:21;25.90;64.20
15394;DHT22;7795;47.986;11.868;2023-07-24T14:38:46;26.00;64.40
15394;DHT22;7795;47.986;11.868;2023-07-24T14:41:12;26.00;64.00
15394;DHT22;7795;47.986;11.868;2023-07-24T14:43:39;26.10;63.90
15394;DHT22;7795;47.986;11.868;2023-07-24T14:46:05;26.10;64.20
15394;DHT22;7795;47.986;11.868;2023-07-24T14:48:32;26.20;63.90
15394;DHT22;7795;47.986;11.868;2023-07-24T14:50:58;26.20;63.90
15394;DHT22;7795;47.986;11.868;2023-07-24T14:53:23;26.30;63.90
15394;DHT22;7795;47.986;11.868;2023-07-24T14:55:49;26.40;63.80
15394;DHT22;7795;47.986;11.868;2023-07-24T14:58:15;26.50;63.60
15394;DHT22;7795;47.986;11.868;2023-07-24T15:00:40;26.50;63.50
15394;DHT22;7795;47.986;11.868;2023-07-24T15:03:06;26.60;63.50
15394;DHT22;7795;47.986;11.868;2023-07-24T15:05:33;26.70;63.40
15394;DHT22;7795;47.986;11.868;2023-07-24T15:07:59;26.80;63.60
15394;DHT22;7795;47.986;11.868;2023-07-24T15:10:25;26.90;62.60
15394;DHT22;7795;47.986;11.868;2023-07-24T15:12:51;27.00;62.40
15394;DHT22;7795;47.986;11.868;2023-07-24T15:15:17;27.10;62.20
15394;DHT22;7795;47.986;11.868;2023-07-24T15:17:42;27.20;62.10
15394;DHT22;7795;47.986;11.868;2023-07-24T15:20:08;27.20;62.10
15394;DHT22;7795;47.986;11.868;2023-07-24T15:22:36;27.30;62.20
15394;DHT22;7795;47.986;11.868;2023-07-24T15:25:02;27.40;62.20